Time;durP1;ratioP1;P1;durP2;ratioP2;P2;SDS_P1;SDS_P2;PMS_P1;PMS_P2;Temp;Humidity;BMP_temperature;BMP_pressure;BME280_temperature;BME280_humidity;BME280_pressure;Samples;Min_cycle;Max_cycle;Signal;HPM_P1;HPM_P2
2022/09/02 00:02:02;;;;;;;3.03;1.53;;;;;;;12.26;100.00;102437.81;7400282;19;20392;-52
2022/09/02 00:04:32;;;;;;;4.40;1.87;;;;;;;12.18;100.00;102441.63;7383477;19;20470;-52
2022/09/02 00:07:02;;;;;;;9.70;1.40;;;;;;;12.07;100.00;102435.78;7396333;19;20386;-55
2022/09/02 00:09:32;;;;;;;5.90;2.20;;;;;;;12.07;100.00;102428.94;7384480;19;20447;-51
2022/09/02 00:12:05;;;;;;;2.60;1.40;;;;;;;12.02;100.00;102426.00;7394637;19;20398;-50
2022/09/02 00:14:37;;;;;;;4.20;1.70;;;;;;;11.95;100.00;102429.00;7386346;19;20420;-56
2022/09/02 00:17:06;;;;;;;3.57;1.70;;;;;;;12.06;100.00;102421.06;7395598;19;20390;-51
2022/09/02 00:19:37;;;;;;;4.60;1.70;;;;;;;12.14;100.00;102425.91;7380254;19;20806;-49
2022/09/02 00:22:07;;;;;;;7.00;1.87;;;;;;;12.08;100.00;102424.63;7395624;19;20383;-48
2022/09/02 00:24:37;;;;;;;5.03;1.63;;;;;;;11.98;100.00;102421.44;7377961;19;20415;-52
2022/09/02 00:27:09;;;;;;;4.83;1.93;;;;;;;12.12;100.00;102418.84;7395405;19;20477;-57
2022/09/02 00:29:39;;;;;;;4.00;2.00;;;;;;;12.04;100.00;102417.50;7387194;19;20435;-54
2022/09/02 00:32:08;;;;;;;4.30;2.50;;;;;;;12.02;100.00;102426.00;7393907;19;20396;-52
2022/09/02 00:34:38;;;;;;;6.00;2.40;;;;;;;12.02;100.00;102428.56;7378392;19;20454;-52
2022/09/02 00:37:08;;;;;;;2.93;1.80;;;;;;;12.12;100.00;102421.44;7394733;19;20380;-51
2022/09/02 00:39:37;;;;;;;3.90;1.80;;;;;;;12.00;100.00;102426.72;7380768;19;20414;-49
2022/09/02 00:42:10;;;;;;;5.00;2.40;;;;;;;12.08;100.00;102429.81;7394483;19;20407;-52
2022/09/02 00:44:40;;;;;;;3.83;1.97;;;;;;;12.09;100.00;102426.41;7379879;19;20424;-49
2022/09/02 00:47:10;;;;;;;3.23;1.80;;;;;;;12.13;100.00;102431.00;7394634;19;20920;-51
2022/09/02 00:49:41;;;;;;;4.87;1.90;;;;;;;12.01;100.00;102436.28;7360554;19;20421;-57
2022/09/02 00:52:14;;;;;;;4.37;2.00;;;;;;;11.97;100.00;102442.03;7393322;19;20385;-55
2022/09/02 00:54:48;;;;;;;3.13;1.30;;;;;;;12.04;100.00;102438.19;7385883;19;20425;-52
2022/09/02 00:57:23;;;;;;;7.37;2.03;;;;;;;12.12;100.00;102444.72;7394185;19;20390;-55
2022/09/02 00:59:58;;;;;;;3.43;1.77;;;;;;;12.08;100.00;102445.31;7379739;19;20414;-51
2022/09/02 01:02:30;;;;;;;3.20;1.63;;;;;;;12.13;100.00;102452.59;7397022;19;20729;-53
2022/09/02 01:05:02;;;;;;;3.97;2.00;;;;;;;11.93;100.00;102446.13;7385337;19;20420;-51
2022/09/02 01:07:36;;;;;;;4.27;1.60;;;;;;;11.91;100.00;102452.91;7397114;19;20399;-54
2022/09/02 01:10:07;;;;;;;4.27;2.20;;;;;;;11.91;100.00;102446.81;7380197;19;20772;-53
2022/09/02 01:12:40;;;;;;;7.43;1.77;;;;;;;11.70;100.00;102450.72;7392226;19;20388;-52
2022/09/02 01:15:11;;;;;;;3.60;1.63;;;;;;;11.65;100.00;102439.22;7378315;19;20414;-53
2022/09/02 01:17:44;;;;;;;4.43;1.37;;;;;;;11.64;100.00;102434.81;7393552;19;20393;-54
2022/09/02 01:20:18;;;;;;;2.70;1.47;;;;;;;11.56;100.00;102433.44;7378992;19;20950;-53
2022/09/02 01:22:52;;;;;;;4.80;2.00;;;;;;;11.52;100.00;102432.34;7393201;19;20385;-54
2022/09/02 01:25:26;;;;;;;4.43;1.93;;;;;;;11.53;100.00;102433.25;7390750;19;20426;-53
2022/09/02 01:28:01;;;;;;;3.00;1.60;;;;;;;11.44;100.00;102429.25;7384349;19;20425;-49
2022/09/02 01:30:32;;;;;;;3.90;2.03;;;;;;;11.34;100.00;102417.41;7392748;19;20413;-51
2022/09/02 01:33:01;;;;;;;3.40;2.00;;;;;;;11.39;100.00;102416.84;7377753;19;20400;-53
2022/09/02 01:35:31;;;;;;;2.80;1.40;;;;;;;11.30;100.00;102409.38;7390187;19;20418;-50
2022/09/02 01:38:03;;;;;;;3.33;1.93;;;;;;;11.33;100.00;102402.72;7384806;19;20382;-55
2022/09/02 01:40:34;;;;;;;2.90;1.73;;;;;;;11.34;100.00;102396.75;7392860;19;20381;-50
2022/09/02 01:43:07;;;;;;;4.10;1.53;;;;;;;11.29;100.00;102385.22;7378287;19;20396;-52
2022/09/02 01:45:37;;;;;;;4.07;2.10;;;;;;;11.32;100.00;102384.53;7390514;19;20413;-47
2022/09/02 01:48:08;;;;;;;2.93;1.57;;;;;;;11.37;100.00;102374.50;7378161;19;20395;-54
2022/09/02 01:50:38;;;;;;;5.60;1.70;;;;;;;11.38;100.00;102368.53;7392642;19;20725;-53
2022/09/02 01:53:18;;;;;;;4.00;1.47;;;;;;;11.34;100.00;102359.69;7379373;19;20390;-54
2022/09/02 01:55:48;;;;;;;3.80;1.30;;;;;;;11.17;100.00;102369.81;7392785;19;20390;-53
2022/09/02 01:58:18;;;;;;;2.47;1.60;;;;;;;11.30;100.00;102358.59;7375882;19;20460;-55
2022/09/02 02:00:47;;;;;;;6.43;1.20;;;;;;;11.42;100.00;102353.31;7394098;19;20407;-51
2022/09/02 02:03:18;;;;;;;2.60;1.60;;;;;;;11.35;100.00;102353.72;7383499;19;20446;-56
2022/09/02 02:05:47;;;;;;;5.00;1.90;;;;;;;11.20;100.00;102357.13;7396115;19;20401;-49
2022/09/02 02:08:19;;;;;;;2.47;1.40;;;;;;;11.22;100.00;102349.44;7385284;19;21060;-56
2022/09/02 02:10:49;;;;;;;2.23;1.20;;;;;;;11.13;100.00;102338.53;7392487;19;20384;-57
2022/09/02 02:13:19;;;;;;;3.03;1.60;;;;;;;10.99;100.00;102329.88;7385244;19;20397;-53
2022/09/02 02:15:48;;;;;;;2.90;1.70;;;;;;;11.05;100.00;102322.53;7399729;19;20384;-48
2022/09/02 02:18:18;;;;;;;2.53;1.73;;;;;;;11.02;100.00;102315.47;7386560;19;20946;-50
2022/09/02 02:20:48;;;;;;;3.87;2.10;;;;;;;10.89;100.00;102306.06;7399864;19;20413;-52
2022/09/02 02:23:21;;;;;;;2.57;1.53;;;;;;;10.85;100.00;102280.81;7385005;19;20422;-54
2022/09/02 02:25:50;;;;;;;4.00;1.83;;;;;;;10.98;100.00;102261.81;7399336;19;20392;-51
2022/09/02 02:28:20;;;;;;;4.00;1.70;;;;;;;10.84;100.00;102257.47;7385014;19;21371;-51
2022/09/02 02:30:50;;;;;;;3.70;2.10;;;;;;;10.78;100.00;102252.81;7399518;19;20395;-56
2022/09/02 02:33:19;;;;;;;5.90;1.53;;;;;;;10.53;100.00;102243.47;7390088;19;20418;-54
2022/09/02 02:35:54;;;;;;;2.60;1.50;;;;;;;10.58;100.00;102218.88;7399130;19;20396;-52
2022/09/02 02:38:26;;;;;;;4.43;1.67;;;;;;;10.54;100.00;102206.53;7385287;19;20403;-51
2022/09/02 02:40:58;;;;;;;5.07;2.70;;;;;;;10.95;100.00;102191.91;7399336;19;20392;-48
2022/09/02 02:43:28;;;;;;;9.03;5.53;;;;;;;11.34;100.00;102184.84;7384827;19;20424;-54
2022/09/02 02:45:57;;;;;;;22.40;13.23;;;;;;;11.41;100.00;102193.88;7398871;19;20490;-51
2022/09/02 02:48:27;;;;;;;19.57;11.93;;;;;;;11.28;100.00;102205.16;7377515;19;20428;-55
2022/09/02 02:50:57;;;;;;;34.33;18.70;;;;;;;11.44;100.00;102206.97;7399039;19;20388;-49
2022/09/02 02:53:30;;;;;;;15.67;9.60;;;;;;;11.67;100.00;102217.84;7381539;19;20409;-53
2022/09/02 02:55:59;;;;;;;4.20;2.23;;;;;;;11.36;100.00;102249.56;7398561;19;20424;-53
2022/09/02 02:58:29;;;;;;;6.87;4.20;;;;;;;11.05;100.00;102252.78;7383617;19;20757;-53
2022/09/02 03:00:59;;;;;;;4.63;1.93;;;;;;;10.74;100.00;102246.56;7400221;19;20389;-52
2022/09/02 03:03:30;;;;;;;4.60;2.00;;;;;;;10.64;100.00;102236.41;7383343;19;20433;-50
2022/09/02 03:06:00;;;;;;;2.00;1.00;;;;;;;10.33;100.00;102231.78;7398314;19;20457;-54
2022/09/02 03:08:34;;;;;;;6.40;2.70;;;;;;;10.28;100.00;102205.69;7384048;19;20509;-53
2022/09/02 03:11:05;;;;;;;3.80;2.90;;;;;;;10.42;100.00;102185.06;7398340;19;20400;-54
2022/09/02 03:13:36;;;;;;;3.03;1.50;;;;;;;10.29;100.00;102179.09;7381225;19;20482;-48
2022/09/02 03:16:06;;;;;;;3.70;2.60;;;;;;;10.17;100.00;102175.72;7397969;19;20762;-55
2022/09/02 03:18:36;;;;;;;3.57;2.03;;;;;;;10.22;100.00;102146.88;7382980;19;20430;-53
2022/09/02 03:21:09;;;;;;;5.50;3.60;;;;;;;10.23;100.00;102137.44;7397703;19;20755;-53
2022/09/02 03:23:41;;;;;;;4.67;2.77;;;;;;;10.16;100.00;102130.09;7382033;19;20439;-57
2022/09/02 03:26:11;;;;;;;2.70;1.60;;;;;;;10.11;100.00;102117.78;7396480;19;20396;-52
2022/09/02 03:28:41;;;;;;;5.20;3.00;;;;;;;10.09;100.00;102103.88;7390937;19;20420;-54
2022/09/02 03:31:16;;;;;;;6.07;3.10;;;;;;;10.20;100.00;102093.41;7397379;19;20395;-56
2022/09/02 03:33:46;;;;;;;3.40;1.80;;;;;;;10.18;100.00;102088.13;7389081;19;20502;-50
2022/09/02 03:36:24;;;;;;;2.60;1.40;;;;;;;10.09;100.00;102078.09;7396976;19;20914;-53
2022/09/02 03:38:57;;;;;;;2.90;2.10;;;;;;;10.12;100.00;102072.25;7382541;19;20425;-55
2022/09/02 03:41:27;;;;;;;5.20;2.90;;;;;;;10.23;100.00;102060.03;7397398;19;20393;-53
2022/09/02 03:43:58;;;;;;;4.43;1.97;;;;;;;10.24;100.00;102059.25;7381959;19;20420;-52
2022/09/02 03:46:27;;;;;;;4.70;2.90;;;;;;;10.29;100.00;102049.25;7397256;19;20388;-50
2022/09/02 03:48:57;;;;;;;3.20;1.63;;;;;;;10.15;100.00;102049.22;7362761;19;20418;-57
2022/09/02 03:51:27;;;;;;;10.50;2.17;;;;;;;10.13;100.00;102045.66;7395756;19;20389;-56
2022/09/02 03:54:01;;;;;;;4.57;2.60;;;;;;;10.13;100.00;102049.16;7383315;19;20431;-54
2022/09/02 03:56:31;;;;;;;4.13;2.30;;;;;;;10.09;100.00;102042.00;7399793;19;20410;-54
2022/09/02 03:59:00;;;;;;;2.90;1.53;;;;;;;10.07;100.00;102038.44;7382406;19;20414;-53
2022/09/02 04:01:31;;;;;;;3.70;2.00;;;;;;;10.00;100.00;102043.97;7397785;19;20730;-56
2022/09/02 04:04:03;;;;;;;2.50;1.80;;;;;;;9.95;100.00;102027.34;7376667;19;20423;-57
2022/09/02 04:06:33;;;;;;;5.40;2.90;;;;;;;10.07;100.00;102017.81;7397195;19;20392;-54
2022/09/02 04:09:07;;;;;;;3.50;1.60;;;;;;;10.08;100.00;102014.44;7381650;19;20407;-53
2022/09/02 04:11:36;;;;;;;4.60;2.40;;;;;;;10.02;100.00;102014.03;7396119;19;20388;-55
2022/09/02 04:14:06;;;;;;;5.17;2.40;;;;;;;9.91;100.00;102018.50;7380046;19;20430;-53
2022/09/02 04:16:35;;;;;;;5.20;2.63;;;;;;;9.93;100.00;102014.34;7396124;19;20820;-51
2022/09/02 04:19:05;;;;;;;2.93;1.70;;;;;;;10.11;100.00;102004.28;7365554;19;20980;-54
2022/09/02 04:21:37;;;;;;;4.10;2.30;;;;;;;10.16;100.00;102001.13;7395865;19;20394;-54
2022/09/02 04:24:10;;;;;;;3.77;1.80;;;;;;;10.01;100.00;102001.94;7376972;19;20442;-53
2022/09/02 04:26:40;;;;;;;2.83;1.73;;;;;;;9.94;100.00;102002.34;7395730;19;20928;-51
2022/09/02 04:29:13;;;;;;;2.97;1.77;;;;;;;9.89;100.00;102002.03;7381101;19;20431;-52
2022/09/02 04:31:45;;;;;;;4.00;2.30;;;;;;;9.77;100.00;101997.00;7395503;19;20391;-53
2022/09/02 04:34:14;;;;;;;2.80;1.80;;;;;;;9.82;100.00;101989.53;7379255;19;20430;-54
2022/09/02 04:36:44;;;;;;;3.20;2.07;;;;;;;9.76;100.00;101986.56;7392536;19;20384;-50
2022/09/02 04:39:16;;;;;;;4.57;2.23;;;;;;;9.71;100.00;101994.00;7379118;19;20425;-55
2022/09/02 04:41:46;;;;;;;3.27;1.90;;;;;;;9.65;100.00;101985.88;7395258;19;20383;-52
2022/09/02 04:44:15;;;;;;;5.63;2.20;;;;;;;9.79;100.00;101979.94;7379638;19;20453;-53
2022/09/02 04:46:45;;;;;;;3.90;1.93;;;;;;;9.76;100.00;101973.69;7395310;19;20398;-57
2022/09/02 04:49:15;;;;;;;5.30;1.93;;;;;;;9.77;100.00;101963.47;7387121;19;20941;-54
2022/09/02 04:51:44;;;;;;;2.60;1.70;;;;;;;9.80;100.00;101961.09;7396511;19;20396;-52
2022/09/02 04:54:16;;;;;;;3.63;1.90;;;;;;;9.85;100.00;101951.97;7384927;19;20411;-54
2022/09/02 04:56:46;;;;;;;2.83;1.90;;;;;;;9.95;100.00;101952.56;7395021;19;20394;-53
2022/09/02 04:59:15;;;;;;;7.10;2.10;;;;;;;10.02;100.00;101954.72;7387030;19;20415;-50
2022/09/02 05:01:45;;;;;;;6.40;2.17;;;;;;;9.92;100.00;101953.25;7394235;19;20394;-55
2022/09/02 05:04:15;;;;;;;6.37;3.00;;;;;;;9.90;100.00;101959.13;7386779;19;20439;-50
2022/09/02 05:06:45;;;;;;;5.67;2.20;;;;;;;9.92;100.00;101957.50;7394523;19;20472;-50
2022/09/02 05:09:17;;;;;;;5.07;2.40;;;;;;;10.03;100.00;101959.09;7387164;19;20419;-55
2022/09/02 05:11:47;;;;;;;3.80;2.50;;;;;;;9.98;100.00;101965.63;7394426;19;20391;-50
2022/09/02 05:14:18;;;;;;;3.90;1.90;;;;;;;9.96;100.00;101964.66;7366978;19;20411;-53
2022/09/02 05:16:48;;;;;;;3.90;2.27;;;;;;;10.12;100.00;101963.94;7394039;19;20774;-52
2022/09/02 05:19:22;;;;;;;14.40;2.27;;;;;;;10.16;100.00;101965.03;7376468;19;20419;-55
2022/09/02 05:21:54;;;;;;;4.63;1.90;;;;;;;10.27;100.00;101959.72;7393643;19;20384;-54
2022/09/02 05:24:28;;;;;;;12.23;6.70;;;;;;;10.33;100.00;101959.25;7382803;19;20423;-55
2022/09/02 05:26:58;;;;;;;15.47;8.80;;;;;;;10.47;100.00;101966.97;7393748;19;20740;-51
2022/09/02 05:29:27;;;;;;;21.60;12.27;;;;;;;10.59;100.00;101965.13;7369108;19;20419;-51
2022/09/02 05:31:57;;;;;;;7.43;3.83;;;;;;;10.61;100.00;101968.69;7393382;19;20401;-52
2022/09/02 05:34:27;;;;;;;14.40;7.20;;;;;;;10.66;100.00;101964.72;7366114;19;20456;-50
2022/09/02 05:36:56;;;;;;;16.47;8.37;;;;;;;10.75;100.00;101974.69;7393253;19;20383;-56
2022/09/02 05:39:29;;;;;;;14.40;6.80;;;;;;;10.79;100.00;101975.78;7357221;19;20787;-53
2022/09/02 05:41:59;;;;;;;11.80;6.23;;;;;;;10.79;100.00;101980.94;7392612;19;20730;-56
2022/09/02 05:44:30;;;;;;;3.90;2.40;;;;;;;10.84;100.00;101983.78;7376124;19;20433;-52
2022/09/02 05:46:59;;;;;;;12.40;3.40;;;;;;;10.86;100.00;101990.84;7393302;19;20382;-51
2022/09/02 05:49:29;;;;;;;5.33;2.50;;;;;;;10.86;100.00;101992.53;7399770;19;20946;-51
2022/09/02 05:52:01;;;;;;;4.63;2.57;;;;;;;10.88;100.00;101996.97;7407415;19;20394;-54
2022/09/02 05:54:35;;;;;;;9.03;2.10;;;;;;;10.96;100.00;102004.31;7398936;19;20439;-53
2022/09/02 05:57:07;;;;;;;3.20;2.20;;;;;;;11.08;100.00;101999.88;7407121;19;20397;-54
2022/09/02 05:59:41;;;;;;;3.57;1.80;;;;;;;11.09;100.00;102006.81;7400603;19;20408;-54
2022/09/02 06:02:11;;;;;;;2.73;1.93;;;;;;;11.07;100.00;102009.31;7409077;19;20405;-53
2022/09/02 06:04:41;;;;;;;7.93;2.17;;;;;;;11.18;100.00;102009.94;7396926;19;20441;-48
2022/09/02 06:07:11;;;;;;;8.30;5.10;;;;;;;11.78;100.00;102008.19;7406891;19;20407;-53
2022/09/02 06:09:45;;;;;;;12.77;4.20;;;;;;;12.46;100.00;102004.16;7403339;19;20959;-50
2022/09/02 06:12:16;;;;;;;20.40;10.50;;;;;;;12.57;100.00;102028.06;7406526;19;20383;-53
2022/09/02 06:14:46;;;;;;;20.30;11.07;;;;;;;12.56;100.00;102047.88;7398393;19;20425;-54
2022/09/02 06:17:15;;;;;;;32.17;17.43;;;;;;;12.59;100.00;102077.31;7406260;19;20912;-51
2022/09/02 06:19:46;;;;;;;24.33;14.53;;;;;;;12.64;100.00;102097.47;7399887;19;20411;-55
2022/09/02 06:22:16;;;;;;;57.50;35.93;;;;;;;12.89;100.00;102110.84;7406191;19;20391;-53
2022/09/02 06:24:48;;;;;;;73.73;40.00;;;;;;;12.96;100.00;102131.09;7395718;19;20952;-55
2022/09/02 06:27:17;;;;;;;66.13;37.10;;;;;;;12.89;100.00;102149.72;7406092;19;20391;-54
2022/09/02 06:29:47;;;;;;;6.60;3.87;;;;;;;12.94;100.00;102166.41;7400434;19;20411;-57
2022/09/02 06:32:17;;;;;;;8.70;3.83;;;;;;;12.75;100.00;102188.69;7406011;19;20394;-53
2022/09/02 06:34:46;;;;;;;4.70;2.07;;;;;;;12.54;100.00;102199.63;7396998;19;20413;-54
2022/09/02 06:37:16;;;;;;;5.53;1.90;;;;;;;12.43;100.00;102190.38;7405607;19;20368;-51
2022/09/02 06:39:48;;;;;;;7.40;4.43;;;;;;;12.49;100.00;102194.97;7397163;19;20419;-53
2022/09/02 06:42:18;;;;;;;4.20;2.30;;;;;;;12.67;100.00;102189.97;7405538;19;20816;-56
2022/09/02 06:44:47;;;;;;;6.07;3.30;;;;;;;12.73;100.00;102184.22;7378365;19;20503;-54
2022/09/02 06:47:17;;;;;;;6.40;3.83;;;;;;;12.82;100.00;102195.13;7405630;19;20395;-55
2022/09/02 06:49:46;;;;;;;5.77;2.40;;;;;;;12.94;100.00;102200.97;7398194;19;20766;-54
2022/09/02 06:52:16;;;;;;;6.70;3.90;;;;;;;13.05;100.00;102208.44;7405301;19;20388;-57
2022/09/02 06:54:49;;;;;;;5.90;3.33;;;;;;;13.14;100.00;102214.13;7397027;19;20407;-51
2022/09/02 06:57:19;;;;;;;5.33;2.90;;;;;;;13.24;100.00;102223.28;7405323;19;20383;-51
2022/09/02 06:59:50;;;;;;;2.97;1.67;;;;;;;13.34;100.00;102241.09;7396124;19;20464;-51
2022/09/02 07:02:27;;;;;;;5.90;3.07;;;;;;;13.46;100.00;102278.91;7398236;19;20396;-57
2022/09/02 07:05:09;;;;;;;3.30;2.00;;;;;;;13.61;100.00;102299.59;7388263;19;20432;-55
2022/09/02 07:07:40;;;;;;;3.77;1.77;;;;;;;13.67;100.00;102324.94;7398496;19;20739;-53
2022/09/02 07:10:14;;;;;;;6.43;1.73;;;;;;;13.66;100.00;102343.91;7392069;19;20428;-54
2022/09/02 07:12:43;;;;;;;3.03;1.10;;;;;;;13.75;100.00;102365.19;7397711;19;20391;-52
2022/09/02 07:15:13;;;;;;;7.10;2.80;;;;;;;13.90;100.00;102396.25;7388573;19;20429;-55
2022/09/02 07:17:43;;;;;;;5.67;2.60;;;;;;;14.04;100.00;102457.56;7398006;19;20376;-56
2022/09/02 07:20:13;;;;;;;5.57;2.60;;;;;;;14.12;100.00;102507.31;7391117;19;20409;-55
2022/09/02 07:22:42;;;;;;;4.77;1.50;;;;;;;14.26;100.00;102556.50;7397267;19;20736;-56
2022/09/02 07:25:15;;;;;;;3.53;1.10;;;;;;;14.44;100.00;102635.41;7388904;19;20435;-50
2022/09/02 07:27:45;;;;;;;3.30;1.70;;;;;;;14.55;100.00;102676.66;7398249;19;20396;-55
2022/09/02 07:30:15;;;;;;;4.33;1.27;;;;;;;14.69;100.00;102631.56;7385924;19;20522;-56
2022/09/02 07:32:44;;;;;;;6.50;1.80;;;;;;;14.82;100.00;102492.84;7396792;19;20391;-56
2022/09/02 07:35:14;;;;;;;3.80;1.63;;;;;;;14.93;100.00;102287.22;7388886;19;20975;-52
2022/09/02 07:37:44;;;;;;;6.00;2.40;;;;;;;14.96;100.00;102121.94;7397286;19;20391;-51
2022/09/02 07:40:16;;;;;;;2.80;1.10;;;;;;;15.07;100.00;101968.19;7388962;19;20416;-57
2022/09/02 07:42:49;;;;;;;4.40;1.20;;;;;;;15.10;100.00;101859.16;7396778;19;20401;-54
2022/09/02 07:45:18;;;;;;;8.80;1.20;;;;;;;15.20;100.00;101852.63;7388710;19;20481;-55
2022/09/02 07:47:48;;;;;;;4.40;1.53;;;;;;;15.35;100.00;101777.84;7397331;19;20393;-56
2022/09/02 07:50:18;;;;;;;3.83;1.07;;;;;;;15.48;100.00;101674.28;7388348;19;20424;-53
2022/09/02 07:52:50;;;;;;;2.80;1.20;;;;;;;15.53;100.00;101580.00;7398203;19;20403;-55
2022/09/02 07:55:23;;;;;;;2.40;1.30;;;;;;;15.60;100.00;101499.56;7387406;19;20417;-54
2022/09/02 07:57:54;;;;;;;2.93;1.33;;;;;;;15.70;100.00;101449.63;7396944;19;20393;-56
2022/09/02 08:00:26;;;;;;;2.23;0.90;;;;;;;15.82;100.00;101414.41;7395722;19;20426;-52
2022/09/02 08:02:56;;;;;;;4.57;1.10;;;;;;;15.96;100.00;101378.44;7400061;19;20485;-54
2022/09/02 08:05:26;;;;;;;9.23;1.20;;;;;;;16.07;100.00;101361.41;7393336;19;20944;-52
2022/09/02 08:07:55;;;;;;;3.30;1.20;;;;;;;16.15;100.00;101331.28;7396730;19;20468;-49
2022/09/02 08:10:28;;;;;;;4.13;2.57;;;;;;;16.28;100.00;101313.38;7394764;19;20960;-53
2022/09/02 08:13:00;;;;;;;8.33;3.60;;;;;;;16.41;100.00;101305.06;7372895;19;20384;-54
2022/09/02 08:15:31;;;;;;;14.90;7.77;;;;;;;16.62;100.00;101289.94;7393452;19;20933;-57
2022/09/02 08:18:01;;;;;;;5.20;2.73;;;;;;;16.67;100.00;101277.94;7381588;19;20401;-56
2022/09/02 08:20:30;;;;;;;8.07;3.63;;;;;;;16.69;100.00;101268.41;7395382;19;20388;-52
2022/09/02 08:23:00;;;;;;;2.63;1.17;;;;;;;16.78;100.00;101260.84;7380868;19;20399;-53
2022/09/02 08:25:44;;;;;;;27.10;17.93;;;;;;;16.99;100.00;101263.03;7395480;19;20381;-54
2022/09/02 08:28:14;;;;;;;8.73;4.80;;;;;;;17.13;100.00;101252.97;7360485;19;20397;-53
2022/09/02 08:30:43;;;;;;;4.60;1.73;;;;;;;17.11;100.00;101264.22;7394039;19;20791;-50
2022/09/02 08:33:13;;;;;;;7.00;4.20;;;;;;;17.18;100.00;101260.91;7370024;19;20386;-54
2022/09/02 08:35:43;;;;;;;12.00;6.70;;;;;;;17.20;100.00;101258.34;7394439;19;20394;-55
2022/09/02 08:38:12;;;;;;;20.53;11.83;;;;;;;17.19;100.00;101264.41;7388368;19;20918;-56
2022/09/02 08:40:45;;;;;;;6.20;2.87;;;;;;;17.30;100.00;101265.53;7395363;19;20758;-49
2022/09/02 08:43:28;;;;;;;21.93;13.57;;;;;;;17.41;100.00;101266.66;7386399;19;20400;-53
2022/09/02 08:46:00;;;;;;;6.20;3.70;;;;;;;17.43;100.00;101271.00;7397198;19;20471;-55
2022/09/02 08:48:36;;;;;;;33.63;20.97;;;;;;;17.55;100.00;101276.50;7388268;19;20428;-52
2022/09/02 08:51:09;;;;;;;10.33;6.43;;;;;;;17.60;100.00;101285.28;7394609;19;20379;-57
2022/09/02 08:53:42;;;;;;;17.73;11.40;;;;;;;17.73;100.00;101282.94;7377004;19;20789;-50
2022/09/02 08:56:15;;;;;;;6.67;3.00;;;;;;;17.93;100.00;101299.88;7393654;19;20390;-54
2022/09/02 08:58:46;;;;;;;6.10;1.53;;;;;;;17.95;100.00;101318.19;7387016;19;20419;-55
2022/09/02 09:01:23;;;;;;;13.80;5.77;;;;;;;18.04;100.00;101336.63;7396007;19;20394;-54
2022/09/02 09:04:12;;;;;;;5.23;1.80;;;;;;;18.01;100.00;101373.13;7368305;19;20516;-55
2022/09/02 09:06:51;;;;;;;6.30;1.83;;;;;;;18.03;100.00;101423.63;7394803;19;20479;-55
2022/09/02 09:09:25;;;;;;;2.43;1.10;;;;;;;18.04;100.00;101466.28;7385497;19;20414;-57
2022/09/02 09:12:04;;;;;;;4.33;1.87;;;;;;;18.02;100.00;101487.16;7393948;19;20422;-54
2022/09/02 09:14:37;;;;;;;14.67;5.03;;;;;;;18.11;100.00;101507.38;7381420;19;20420;-53
2022/09/02 09:17:11;;;;;;;3.37;1.37;;;;;;;18.20;100.00;101528.47;7392800;19;20470;-53
2022/09/02 09:19:50;;;;;;;3.00;1.00;;;;;;;18.28;100.00;101566.94;7387395;19;20417;-53
2022/09/02 09:22:21;;;;;;;2.93;0.90;;;;;;;18.21;100.00;101597.28;7392114;19;20395;-58
2022/09/02 09:24:52;;;;;;;4.03;1.27;;;;;;;18.41;100.00;101634.28;7364709;19;20411;-54
2022/09/02 09:27:24;;;;;;;20.47;4.80;;;;;;;18.50;100.00;101662.34;7393473;19;20398;-58
2022/09/02 09:29:54;;;;;;;3.60;1.60;;;;;;;18.47;100.00;101665.78;7386658;19;20414;-51
2022/09/02 09:32:29;;;;;;;7.30;2.87;;;;;;;18.61;100.00;101678.31;7393114;19;20734;-55
2022/09/02 09:35:03;;;;;;;2.90;1.00;;;;;;;18.72;100.00;101679.41;7384760;19;20519;-57
2022/09/02 09:37:36;;;;;;;5.03;1.57;;;;;;;18.76;100.00;101676.03;7392151;19;21294;-55
2022/09/02 09:40:29;;;;;;;2.70;1.00;;;;;;;18.84;100.00;101680.53;7369838;19;20407;-54
2022/09/02 09:43:14;;;;;;;2.97;1.17;;;;;;;18.87;100.00;101672.78;7378374;19;20388;-54
2022/09/02 09:45:45;;;;;;;8.53;2.87;;;;;;;19.00;100.00;101680.03;7393426;19;21273;-56
2022/09/02 09:48:21;;;;;;;2.73;1.10;;;;;;;19.13;100.00;101670.72;7389715;19;20400;-52
2022/09/02 09:51:11;;;;;;;7.57;2.33;;;;;;;19.12;100.00;101674.19;7392955;19;20918;-53
2022/09/02 09:53:42;;;;;;;12.00;4.73;;;;;;;19.18;100.00;101676.06;7387253;19;20435;-58
2022/09/02 09:56:26;;;;;;;2.60;1.10;;;;;;;19.02;100.00;101680.03;7392496;19;20383;-51
2022/09/02 09:58:58;;;;;;;5.40;2.10;;;;;;;19.24;100.00;101677.91;7369471;19;20774;-56
2022/09/02 10:01:30;;;;;;;4.20;1.53;;;;;;;19.18;100.00;101673.47;7393928;19;20399;-55
2022/09/02 10:04:02;;;;;;;2.80;1.00;;;;;;;19.45;100.00;101660.88;7382516;19;20423;-52
2022/09/02 10:06:40;;;;;;;4.33;2.03;;;;;;;19.52;100.00;101661.03;7392153;19;20748;-58
2022/09/02 10:09:31;;;;;;;4.23;1.77;;;;;;;19.27;100.00;101660.56;7386969;19;20410;-54
2022/09/02 10:12:03;;;;;;;3.80;1.90;;;;;;;19.56;100.00;101643.66;7392291;19;20384;-55
2022/09/02 10:14:41;;;;;;;4.47;1.30;;;;;;;19.77;100.00;101653.63;7365563;19;20435;-56
2022/09/02 10:17:28;;;;;;;6.83;2.70;;;;;;;19.87;100.00;101652.06;7391110;19;20387;-56
2022/09/02 10:20:01;;;;;;;5.03;1.60;;;;;;;19.84;100.00;101645.03;7376479;19;20411;-53
2022/09/02 10:22:59;;;;;;;8.00;3.70;;;;;;;19.86;100.00;101638.94;7391846;19;20387;-56
2022/09/02 10:25:34;;;;;;;8.87;3.60;;;;;;;19.87;100.00;101632.84;7389440;19;20460;-58
2022/09/02 10:28:13;;;;;;;6.30;2.70;;;;;;;19.99;100.00;101637.44;7368393;19;20383;-55
2022/09/02 10:30:53;;;;;;;6.93;3.80;;;;;;;20.09;100.00;101628.88;7391727;19;20929;-58
2022/09/02 10:33:38;;;;;;;3.40;1.33;;;;;;;20.16;100.00;101636.00;7362184;19;20429;-56
2022/09/02 10:36:13;;;;;;;3.87;1.60;;;;;;;20.26;100.00;101636.13;7397298;19;20391;-57
2022/09/02 10:38:50;;;;;;;4.77;1.90;;;;;;;20.26;100.00;101631.78;7388421;19;20751;-57
2022/09/02 10:41:44;;;;;;;4.63;1.80;;;;;;;20.33;100.00;101631.00;7398900;19;20906;-56
2022/09/02 10:44:37;;;;;;;3.43;1.60;;;;;;;20.34;100.00;101627.53;7359301;19;20427;-57
2022/09/02 10:47:14;;;;;;;7.53;2.70;;;;;;;20.22;100.00;101622.09;7398578;19;20463;-56
2022/09/02 10:49:56;;;;;;;2.97;1.13;;;;;;;20.25;100.00;101614.25;7388018;19;20960;-55
2022/09/02 10:52:37;;;;;;;7.23;2.30;;;;;;;20.48;100.00;101618.97;7400348;19;20417;-56
2022/09/02 10:55:14;;;;;;;2.73;1.10;;;;;;;20.18;100.00;101615.94;7389475;19;20784;-56
2022/09/02 10:57:48;;;;;;;4.90;1.40;;;;;;;20.46;100.00;101612.84;7397377;19;20383;-53
2022/09/02 11:00:19;;;;;;;4.83;2.13;;;;;;;20.49;100.00;101615.50;7388252;19;20772;-56
2022/09/02 11:02:55;;;;;;;4.33;1.90;;;;;;;20.61;99.58;101605.19;7397486;19;20388;-51
2022/09/02 11:05:27;;;;;;;3.87;1.97;;;;;;;20.45;100.00;101606.69;7394781;19;20410;-56
2022/09/02 11:08:02;;;;;;;3.10;1.50;;;;;;;20.05;100.00;101606.97;7391979;19;20399;-55
2022/09/02 11:10:36;;;;;;;6.23;1.30;;;;;;;19.79;100.00;101596.06;7397502;19;20383;-52
2022/09/02 11:13:09;;;;;;;3.33;1.40;;;;;;;20.08;100.00;101595.69;7391801;19;20759;-51
2022/09/02 11:15:46;;;;;;;3.77;1.70;;;;;;;20.51;100.00;101590.22;7395258;19;20422;-57
2022/09/02 11:18:23;;;;;;;2.40;1.00;;;;;;;20.79;99.75;101587.94;7388813;19;20391;-49
2022/09/02 11:20:58;;;;;;;4.40;2.10;;;;;;;21.03;98.09;101589.13;7397568;19;20415;-56
2022/09/02 11:23:36;;;;;;;5.90;2.93;;;;;;;21.25;97.07;101582.38;7389235;19;20523;-56
2022/09/02 11:26:09;;;;;;;9.10;3.47;;;;;;;21.39;95.96;101581.63;7397188;19;20403;-56
2022/09/02 11:28:44;;;;;;;4.73;1.93;;;;;;;21.41;95.66;101577.25;7391287;19;20411;-54
2022/09/02 11:31:18;;;;;;;5.20;2.73;;;;;;;21.44;94.83;101575.53;7397407;19;20390;-53
2022/09/02 11:33:54;;;;;;;5.27;1.93;;;;;;;21.42;92.68;101576.38;7388042;19;21038;-56
2022/09/02 11:36:26;;;;;;;3.60;1.70;;;;;;;21.55;91.11;101572.16;7396872;19;20412;-58
2022/09/02 11:39:05;;;;;;;2.83;1.00;;;;;;;21.50;91.11;101568.59;7389756;19;20415;-55
2022/09/02 11:42:00;;;;;;;2.90;1.10;;;;;;;21.38;90.49;101575.47;7397340;19;20394;-57